createdAt,value
2023-06-30T00:02:15.760Z,27.84
2023-06-30T00:04:44.993Z,27.69
2023-06-30T00:07:14.347Z,28.20
2023-06-30T00:09:43.456Z,28.14
2023-06-30T00:12:12.690Z,28.20
2023-06-30T00:14:41.748Z,28.27
2023-06-30T00:17:10.934Z,27.95
2023-06-30T00:19:40.220Z,27.85
2023-06-30T00:22:09.819Z,28.01
2023-06-30T00:24:39.178Z,27.80
2023-06-30T00:27:14.053Z,27.97
2023-06-30T00:30:10.641Z,27.97
2023-06-30T00:33:01.161Z,28.03
2023-06-30T00:35:47.677Z,28.54
2023-06-30T00:38:20.192Z,28.70
2023-06-30T00:41:08.303Z,28.50
2023-06-30T00:43:41.993Z,28.63
2023-06-30T00:46:19.402Z,28.49
2023-06-30T00:48:52.176Z,28.39
2023-06-30T00:51:31.034Z,28.51
2023-06-30T00:54:00.410Z,28.16
2023-06-30T00:56:30.402Z,28.69
2023-06-30T00:59:00.550Z,28.52
2023-06-30T01:01:42.512Z,28.75
2023-06-30T01:04:38.763Z,28.99
2023-06-30T01:07:20.006Z,28.87
2023-06-30T01:10:21.607Z,27.70
2023-06-30T01:12:51.447Z,27.68
2023-06-30T01:15:21.475Z,28.09
2023-06-30T01:17:55.536Z,28.09
2023-06-30T01:20:31.695Z,28.16
2023-06-30T01:23:18.042Z,28.66
2023-06-30T01:25:51.035Z,27.93
2023-06-30T01:28:20.821Z,27.80
2023-06-30T01:30:52.068Z,27.78
2023-06-30T01:33:21.596Z,27.55
2023-06-30T01:35:52.189Z,28.19
2023-06-30T01:38:26.398Z,28.71
2023-06-30T01:44:16.699Z,28.73
2023-06-30T01:46:55.076Z,28.78
2023-06-30T01:49:25.846Z,28.78
2023-06-30T01:51:55.285Z,27.76
2023-06-30T01:54:27.784Z,28.32
2023-06-30T01:57:04.010Z,28.40
2023-06-30T01:59:33.925Z,28.19
2023-06-30T02:02:06.658Z,28.06
2023-06-30T02:04:37.955Z,28.27
2023-06-30T02:07:11.329Z,28.20
2023-06-30T02:09:47.831Z,27.26
2023-06-30T02:12:21.140Z,27.60
2023-06-30T02:14:54.579Z,27.85
2023-06-30T02:17:37.512Z,27.66
2023-06-30T02:20:18.989Z,27.22
2023-06-30T02:22:56.208Z,26.94
2023-06-30T02:25:32.492Z,26.70
2023-06-30T02:28:06.446Z,26.44
2023-06-30T02:30:41.575Z,25.94
2023-06-30T02:33:14.186Z,25.80
2023-06-30T02:35:47.127Z,25.79
2023-06-30T02:38:22.635Z,25.48
2023-06-30T02:40:55.114Z,25.48
2023-06-30T02:43:28.918Z,25.02
2023-06-30T02:46:02.173Z,24.89
2023-06-30T02:48:41.178Z,24.63
2023-06-30T02:51:17.503Z,24.53
2023-06-30T02:53:47.149Z,24.29
2023-06-30T02:56:16.639Z,23.97
2023-06-30T02:58:48.492Z,24.34
2023-06-30T03:01:18.362Z,23.71
2023-06-30T03:04:40.564Z,23.48
2023-06-30T03:07:51.473Z,23.63
2023-06-30T03:10:21.867Z,23.33
2023-06-30T03:12:51.176Z,23.28
2023-06-30T03:15:23.200Z,23.42
2023-06-30T03:17:53.245Z,23.16
2023-06-30T03:20:22.743Z,23.38
2023-06-30T03:23:03.890Z,23.39
2023-06-30T03:25:37.396Z,22.68
2023-06-30T03:28:06.804Z,22.90
2023-06-30T03:30:35.973Z,22.31
2023-06-30T03:33:19.697Z,22.51
2023-06-30T03:36:22.797Z,22.20
2023-06-30T03:38:55.384Z,21.90
2023-06-30T03:41:30.627Z,22.34
2023-06-30T03:44:02.858Z,22.63
2023-06-30T03:46:34.146Z,22.51
2023-06-30T03:49:03.846Z,22.46
2023-06-30T03:51:32.980Z,22.51
2023-06-30T03:54:02.358Z,22.65
2023-06-30T03:56:50.412Z,22.45
2023-06-30T03:59:25.794Z,22.21
2023-06-30T04:02:13.669Z,22.28
2023-06-30T04:04:52.483Z,22.15
2023-06-30T04:07:21.771Z,22.15
2023-06-30T04:09:51.234Z,22.10
2023-06-30T04:12:23.621Z,21.85
2023-06-30T04:14:59.175Z,21.60
2023-06-30T04:17:28.714Z,21.44
2023-06-30T04:20:00.368Z,21.67
2023-06-30T04:22:29.878Z,21.30
2023-06-30T04:25:01.068Z,21.30
2023-06-30T04:27:33.227Z,21.38
2023-06-30T04:30:06.148Z,21.57
2023-06-30T04:32:40.095Z,20.95
2023-06-30T04:35:10.150Z,20.68
2023-06-30T04:37:44.824Z,20.85
2023-06-30T04:40:40.674Z,21.20
2023-06-30T04:43:14.513Z,21.10
2023-06-30T04:45:48.396Z,20.76
2023-06-30T04:48:20.844Z,20.54
2023-06-30T04:50:56.392Z,20.87
2023-06-30T04:55:27.843Z,20.58
2023-06-30T04:57:47.002Z,20.31
2023-06-30T05:00:19.679Z,19.73
2023-06-30T05:02:52.022Z,20.06
2023-06-30T05:05:23.248Z,20.26
2023-06-30T05:07:54.868Z,19.71
2023-06-30T05:10:44.720Z,19.64
2023-06-30T05:13:14.844Z,19.83
2023-06-30T05:15:49.477Z,19.65
2023-06-30T05:21:22.442Z,19.45
2023-06-30T05:21:39.672Z,19.18
2023-06-30T05:24:11.356Z,19.56
2023-06-30T05:26:41.904Z,19.52
2023-06-30T05:29:13.633Z,19.64
2023-06-30T05:31:45.420Z,19.61
2023-06-30T05:34:18.104Z,19.61
2023-06-30T05:36:51.796Z,19.54
2023-06-30T05:39:25.301Z,19.38
2023-06-30T05:41:55.688Z,19.46
2023-06-30T05:44:48.318Z,19.03
2023-06-30T05:47:36.829Z,19.14
2023-06-30T05:50:15.752Z,19.26
2023-06-30T05:52:46.898Z,19.24
2023-06-30T05:55:16.559Z,19.21
2023-06-30T05:57:51.587Z,19.30
2023-06-30T06:00:35.137Z,19.28
2023-06-30T06:03:14.219Z,19.28
2023-06-30T06:05:46.594Z,19.24
2023-06-30T06:08:24.426Z,19.11
2023-06-30T06:11:04.668Z,19.03
2023-06-30T06:14:06.501Z,19.05
2023-06-30T06:16:41.469Z,19.03
2023-06-30T06:19:14.306Z,19.04
2023-06-30T06:22:01.830Z,18.94
2023-06-30T06:24:37.605Z,18.74
2023-06-30T06:27:12.402Z,18.60
2023-06-30T06:29:41.879Z,18.74
2023-06-30T06:32:33.203Z,18.86
2023-06-30T06:35:32.853Z,18.85
2023-06-30T06:38:09.041Z,18.84
2023-06-30T06:40:51.757Z,18.84
2023-06-30T06:43:35.054Z,18.89
2023-06-30T06:46:07.411Z,18.77
2023-06-30T06:48:52.847Z,18.83
2023-06-30T06:51:52.277Z,18.79
2023-06-30T06:54:49.706Z,18.65
2023-06-30T06:57:41.463Z,18.58
2023-06-30T07:00:12.405Z,18.45
2023-06-30T07:03:10.139Z,18.51
2023-06-30T07:05:43.513Z,18.40
2023-06-30T07:08:16.970Z,18.25
2023-06-30T07:10:50.870Z,18.14
2023-06-30T07:13:43.088Z,18.24
2023-06-30T07:16:13.434Z,18.18
2023-06-30T07:18:43.174Z,18.21
2023-06-30T07:21:15.622Z,18.33
2023-06-30T07:23:59.509Z,18.37
2023-06-30T07:26:40.330Z,18.25
2023-06-30T07:29:10.027Z,18.24
2023-06-30T07:31:42.625Z,18.27
2023-06-30T07:34:25.825Z,18.22
2023-06-30T07:37:11.813Z,18.18
2023-06-30T07:40:24.645Z,18.14
2023-06-30T07:42:58.013Z,18.11
2023-06-30T07:45:38.310Z,18.07
2023-06-30T07:48:07.980Z,18.12
2023-06-30T07:50:37.596Z,18.04
2023-06-30T07:53:10.382Z,18.00
2023-06-30T07:55:39.784Z,17.99
2023-06-30T07:58:15.003Z,17.93
2023-06-30T08:00:59.265Z,17.90
2023-06-30T08:03:38.380Z,17.88
2023-06-30T08:06:11.221Z,17.91
2023-06-30T08:09:07.114Z,17.84
2023-06-30T08:11:55.077Z,17.79
2023-06-30T08:14:27.412Z,17.73
2023-06-30T08:16:56.811Z,17.61
2023-06-30T08:19:47.306Z,17.59
2023-06-30T08:22:26.670Z,17.63
2023-06-30T08:24:58.234Z,17.55
2023-06-30T08:27:29.802Z,17.59
2023-06-30T08:29:59.478Z,17.46
2023-06-30T08:32:34.399Z,17.53
2023-06-30T08:35:07.074Z,17.43
2023-06-30T08:37:45.963Z,17.45
2023-06-30T08:40:49.846Z,17.48
2023-06-30T08:44:09.271Z,17.48
2023-06-30T08:51:01.256Z,17.49
2023-06-30T08:53:34.966Z,17.40
2023-06-30T08:56:29.912Z,17.33
2023-06-30T08:58:59.678Z,17.29
2023-06-30T09:01:52.967Z,17.32
2023-06-30T09:04:25.397Z,17.30
2023-06-30T09:07:01.334Z,17.27
2023-06-30T09:10:19.124Z,17.19
2023-06-30T09:12:50.427Z,17.24
2023-06-30T09:15:33.614Z,17.17
2023-06-30T09:18:20.080Z,17.13
2023-06-30T09:21:15.868Z,17.08
2023-06-30T09:24:06.423Z,17.03
2023-06-30T09:26:37.294Z,17.01
2023-06-30T09:29:19.002Z,16.99
2023-06-30T09:32:07.383Z,16.98
2023-06-30T09:34:39.718Z,16.95
2023-06-30T09:37:27.958Z,16.93
2023-06-30T09:40:33.713Z,16.83
2023-06-30T09:43:41.593Z,16.82
2023-06-30T09:46:19.376Z,16.85
2023-06-30T09:49:09.780Z,16.84
2023-06-30T09:52:08.681Z,16.80
2023-06-30T09:54:46.462Z,16.78
2023-06-30T09:57:59.913Z,16.68
2023-06-30T10:00:39.577Z,16.64
2023-06-30T10:03:53.899Z,16.63
2023-06-30T10:07:24.200Z,16.54
2023-06-30T10:10:41.834Z,16.65
2023-06-30T10:13:32.114Z,16.66
2023-06-30T10:16:27.783Z,16.66
2023-06-30T10:19:32.535Z,16.59
2023-06-30T10:22:26.598Z,16.40
2023-06-30T10:25:39.954Z,16.53
2023-06-30T10:28:18.365Z,16.50
2023-06-30T10:34:28.985Z,16.51
2023-06-30T10:37:05.473Z,16.49
2023-06-30T10:39:39.691Z,16.45
2023-06-30T10:42:30.059Z,16.44
2023-06-30T10:45:23.807Z,16.40
2023-06-30T10:47:59.085Z,16.38
2023-06-30T10:50:57.686Z,16.38
2023-06-30T10:54:12.199Z,16.29
2023-06-30T10:56:49.776Z,16.22
2023-06-30T11:00:01.474Z,16.18
2023-06-30T11:02:36.210Z,16.27
2023-06-30T11:05:35.976Z,16.17
2023-06-30T11:08:23.954Z,16.20
2023-06-30T11:11:08.970Z,16.09
2023-06-30T11:14:49.580Z,16.12
2023-06-30T11:17:24.620Z,16.02
2023-06-30T11:20:22.297Z,16.07
2023-06-30T11:23:36.548Z,16.17
2023-06-30T11:26:38.873Z,16.18
2023-06-30T11:29:21.512Z,16.14
2023-06-30T11:31:56.762Z,16.00
2023-06-30T11:34:49.237Z,15.94
2023-06-30T11:37:22.288Z,15.85
2023-06-30T11:39:58.195Z,15.79
2023-06-30T11:42:28.557Z,15.74
2023-06-30T11:45:31.897Z,15.74
2023-06-30T11:47:54.778Z,15.80
2023-06-30T11:50:38.956Z,15.79
2023-06-30T11:53:33.168Z,15.79
2023-06-30T11:56:19.375Z,15.73
2023-06-30T11:59:22.451Z,15.74
2023-06-30T12:02:20.927Z,15.66
2023-06-30T12:06:09.787Z,15.65
2023-06-30T12:08:34.039Z,15.61
2023-06-30T12:11:20.544Z,15.66
2023-06-30T12:13:55.888Z,15.61
2023-06-30T12:16:28.813Z,15.66
2023-06-30T12:22:14.456Z,15.62
2023-06-30T12:24:58.785Z,15.63
2023-06-30T12:27:40.778Z,15.56
2023-06-30T12:30:46.475Z,15.60
2023-06-30T12:33:33.002Z,15.55
2023-06-30T12:36:10.395Z,15.49
2023-06-30T12:38:41.951Z,15.52
2023-06-30T12:41:11.575Z,15.41
2023-06-30T12:43:41.030Z,15.33
2023-06-30T12:46:45.880Z,15.38
2023-06-30T12:49:05.457Z,15.41
2023-06-30T12:51:41.185Z,15.44
2023-06-30T12:54:10.751Z,15.43
2023-06-30T12:56:45.587Z,15.49
2023-06-30T12:59:17.034Z,15.42
2023-06-30T13:02:15.174Z,15.48
2023-06-30T13:04:58.558Z,15.48
2023-06-30T13:07:35.890Z,15.48
2023-06-30T13:14:35.022Z,15.56
2023-06-30T13:17:10.837Z,15.28
2023-06-30T13:19:40.178Z,15.18
2023-06-30T13:22:16.721Z,15.51
2023-06-30T13:24:49.163Z,15.52
2023-06-30T13:27:22.232Z,15.69
2023-06-30T13:29:54.578Z,15.92
2023-06-30T13:32:28.777Z,16.06
2023-06-30T13:35:11.755Z,15.97
2023-06-30T13:38:07.967Z,16.03
2023-06-30T13:40:40.325Z,15.97
2023-06-30T13:43:13.292Z,16.02
2023-06-30T13:45:43.203Z,15.92
2023-06-30T13:48:15.909Z,16.03
2023-06-30T13:50:52.658Z,16.05
2023-06-30T13:53:45.909Z,16.05
2023-06-30T13:56:18.120Z,16.11
2023-06-30T13:58:47.406Z,16.12
2023-06-30T14:01:29.353Z,16.12
2023-06-30T14:04:09.866Z,16.14
2023-06-30T14:06:39.358Z,16.03
2023-06-30T14:09:12.902Z,16.14
2023-06-30T14:11:43.347Z,16.05
2023-06-30T14:14:14.946Z,16.06
2023-06-30T14:16:47.300Z,16.07
2023-06-30T14:19:19.132Z,15.72
2023-06-30T14:21:48.329Z,15.88
2023-06-30T14:24:17.475Z,15.77
2023-06-30T14:26:46.614Z,15.74
2023-06-30T14:29:18.382Z,15.74
2023-06-30T14:31:51.622Z,15.80
2023-06-30T14:34:20.863Z,15.68
2023-06-30T14:36:50.160Z,15.86
2023-06-30T14:39:30.500Z,15.90
2023-06-30T14:42:27.042Z,15.84
2023-06-30T14:45:19.546Z,15.99
2023-06-30T14:47:48.734Z,16.06
2023-06-30T14:50:18.165Z,16.07
2023-06-30T14:52:48.446Z,16.04
2023-06-30T14:55:17.664Z,16.14
2023-06-30T14:57:48.068Z,16.13
2023-06-30T15:00:22.508Z,16.20
2023-06-30T15:02:51.871Z,16.22
2023-06-30T15:05:21.562Z,16.29
2023-06-30T15:07:52.969Z,16.32
2023-06-30T15:10:22.244Z,16.39
2023-06-30T15:12:52.284Z,16.37
2023-06-30T15:15:21.594Z,16.34
2023-06-30T15:17:53.801Z,16.34
2023-06-30T15:20:24.231Z,16.61
2023-06-30T15:22:59.540Z,16.39
2023-06-30T15:25:31.501Z,16.67
2023-06-30T15:28:03.717Z,16.83
2023-06-30T15:30:33.035Z,16.63
2023-06-30T15:33:14.419Z,16.77
2023-06-30T15:35:43.827Z,16.87
2023-06-30T15:38:21.739Z,16.81
2023-06-30T15:40:56.300Z,17.03
2023-06-30T15:43:32.959Z,16.99
2023-06-30T15:46:02.868Z,17.09
2023-06-30T15:48:32.086Z,17.08
2023-06-30T15:51:05.252Z,17.17
2023-06-30T15:53:34.669Z,17.19
2023-06-30T15:56:20.860Z,17.23
2023-06-30T15:58:55.713Z,17.36
2023-06-30T16:01:44.867Z,17.37
2023-06-30T16:04:23.480Z,17.47
2023-06-30T16:07:06.728Z,17.53
2023-06-30T16:09:36.108Z,17.58
2023-06-30T16:12:08.351Z,17.75
2023-06-30T16:14:37.680Z,17.80
2023-06-30T16:17:06.783Z,17.83
2023-06-30T16:19:38.437Z,17.78
2023-06-30T16:22:07.685Z,17.89
2023-06-30T16:24:43.135Z,17.97
2023-06-30T16:27:20.435Z,18.02
2023-06-30T16:29:54.959Z,18.23
2023-06-30T16:32:33.234Z,18.21
2023-06-30T16:35:11.579Z,18.29
2023-06-30T16:37:41.335Z,18.38
2023-06-30T16:40:34.879Z,18.58
2023-06-30T16:43:07.035Z,18.74
2023-06-30T16:45:39.576Z,18.91
2023-06-30T16:48:20.808Z,18.94
2023-06-30T16:50:59.498Z,19.09
2023-06-30T16:53:29.970Z,19.02
2023-06-30T16:56:05.340Z,19.19
2023-06-30T16:58:41.937Z,19.12
2023-06-30T17:01:11.543Z,19.21
2023-06-30T17:03:41.103Z,19.30
2023-06-30T17:06:17.331Z,19.16
2023-06-30T17:08:50.236Z,19.04
2023-06-30T17:11:21.296Z,19.22
2023-06-30T17:14:02.910Z,19.17
2023-06-30T17:16:39.597Z,19.43
2023-06-30T17:19:13.477Z,19.39
2023-06-30T17:21:45.881Z,19.74
2023-06-30T17:24:16.929Z,19.70
2023-06-30T17:26:55.100Z,19.99
2023-06-30T17:29:25.086Z,20.37
2023-06-30T17:31:54.455Z,20.35
2023-06-30T17:34:27.524Z,20.35
2023-06-30T17:37:04.935Z,20.41
2023-06-30T17:39:37.762Z,20.39
2023-06-30T17:42:12.973Z,20.85
2023-06-30T17:44:47.686Z,20.89
2023-06-30T17:47:17.309Z,20.96
2023-06-30T17:49:50.061Z,21.23
2023-06-30T17:52:19.628Z,21.20
2023-06-30T17:54:49.890Z,21.06
2023-06-30T17:57:19.510Z,21.15
2023-06-30T17:59:51.402Z,21.57
2023-06-30T18:02:21.120Z,21.69
2023-06-30T18:04:51.906Z,21.73
2023-06-30T18:07:24.247Z,21.69
2023-06-30T18:09:53.686Z,21.70
2023-06-30T18:12:23.265Z,21.86
2023-06-30T18:14:52.500Z,21.87
2023-06-30T18:17:24.226Z,22.07
2023-06-30T18:20:02.988Z,22.09
2023-06-30T18:22:32.696Z,22.28
2023-06-30T18:25:02.505Z,22.40
2023-06-30T18:27:36.986Z,22.37
2023-06-30T18:30:06.873Z,22.65
2023-06-30T18:32:39.741Z,22.76
2023-06-30T18:35:10.482Z,23.13
2023-06-30T18:37:39.680Z,23.26
2023-06-30T18:40:13.012Z,23.36
2023-06-30T18:43:02.168Z,23.17
2023-06-30T18:53:04.415Z,23.92
2023-06-30T18:53:34.134Z,23.28
2023-06-30T18:56:01.222Z,23.97
2023-06-30T18:59:31.606Z,24.41
2023-06-30T19:03:37.659Z,24.39
2023-06-30T19:06:29.321Z,24.67
2023-06-30T19:09:53.125Z,24.58
2023-06-30T19:12:25.833Z,24.87
2023-06-30T19:15:53.966Z,24.67
2023-06-30T19:19:08.535Z,24.55
2023-06-30T19:21:46.950Z,24.57
2023-06-30T19:24:35.360Z,24.66
2023-06-30T19:27:28.961Z,24.47
2023-06-30T19:30:28.014Z,24.44
2023-06-30T19:33:01.156Z,24.54
2023-06-30T19:35:34.203Z,24.45
2023-06-30T19:38:06.913Z,24.23
2023-06-30T19:40:57.128Z,24.27
2023-06-30T19:43:29.979Z,24.91
2023-06-30T19:46:19.513Z,23.94
2023-06-30T19:48:53.747Z,23.77
2023-06-30T19:51:22.965Z,23.33
2023-06-30T19:54:23.246Z,24.07
2023-06-30T19:56:47.902Z,24.77
2023-06-30T19:59:18.113Z,25.49
2023-06-30T20:01:58.192Z,25.75
2023-06-30T20:04:29.594Z,25.30
2023-06-30T20:06:59.262Z,25.33
2023-06-30T20:09:34.510Z,25.61
2023-06-30T20:12:08.044Z,25.40
2023-06-30T20:14:42.690Z,25.43
2023-06-30T20:17:18.281Z,25.77
2023-06-30T20:19:49.739Z,25.70
2023-06-30T20:22:21.823Z,24.88
2023-06-30T20:25:50.020Z,25.34
2023-06-30T20:28:25.795Z,25.27
2023-06-30T20:30:57.216Z,25.54
2023-06-30T20:33:35.014Z,25.76
2023-06-30T20:36:15.251Z,26.09
2023-06-30T20:38:45.599Z,26.17
2023-06-30T20:41:15.008Z,25.85
2023-06-30T20:43:47.298Z,26.32
2023-06-30T20:46:17.170Z,26.02
2023-06-30T20:49:17.134Z,26.22
2023-06-30T20:51:57.684Z,26.21
2023-06-30T20:54:47.666Z,26.45
2023-06-30T20:57:17.626Z,26.13
2023-06-30T20:59:49.577Z,26.31
2023-06-30T21:02:22.108Z,26.08
2023-06-30T21:04:54.776Z,26.70
2023-06-30T21:07:24.059Z,26.89
2023-06-30T21:09:58.569Z,26.72
2023-06-30T21:12:27.834Z,27.06
2023-06-30T21:15:17.996Z,26.94
2023-06-30T21:17:47.485Z,27.07
2023-06-30T21:20:16.922Z,27.16
2023-06-30T21:22:46.692Z,26.96
2023-06-30T21:25:17.524Z,26.91
2023-06-30T21:27:47.797Z,27.22
2023-06-30T21:30:26.243Z,27.41
2023-06-30T21:33:20.651Z,27.15
2023-06-30T21:35:55.645Z,27.18
2023-06-30T21:38:43.164Z,27.50
2023-06-30T21:41:18.505Z,27.34
2023-06-30T21:43:54.374Z,27.49
2023-06-30T21:46:41.093Z,27.89
2023-06-30T21:49:15.254Z,27.62
2023-06-30T21:51:44.450Z,27.41
2023-06-30T21:54:16.526Z,27.64
2023-06-30T21:56:45.974Z,27.44
2023-06-30T21:59:17.304Z,26.95
2023-06-30T22:01:46.634Z,27.06
2023-06-30T22:04:24.611Z,26.62
2023-06-30T22:06:54.061Z,26.03
2023-06-30T22:09:23.198Z,26.56
2023-06-30T22:11:52.491Z,26.33
2023-06-30T22:14:25.476Z,26.47
2023-06-30T22:17:20.699Z,26.46
2023-06-30T22:19:49.740Z,26.87
2023-06-30T22:22:18.745Z,27.78
2023-06-30T22:24:47.944Z,27.92
2023-06-30T22:27:20.358Z,27.86
2023-06-30T22:29:52.547Z,28.18
2023-06-30T22:32:24.590Z,28.21
2023-06-30T22:35:01.203Z,28.15
2023-06-30T22:37:34.374Z,28.36
2023-06-30T22:40:03.727Z,28.34
2023-06-30T22:42:56.539Z,28.39
2023-06-30T22:45:33.957Z,27.77
2023-06-30T22:48:38.300Z,28.17
2023-06-30T22:55:08.655Z,28.01
2023-06-30T22:57:38.135Z,27.86
2023-06-30T23:00:08.381Z,28.20
2023-06-30T23:05:51.334Z,28.05
2023-06-30T23:08:24.279Z,28.14
2023-06-30T23:10:59.124Z,28.20
2023-06-30T23:13:32.205Z,28.23
2023-06-30T23:16:34.342Z,28.25
2023-06-30T23:19:03.438Z,28.51
2023-06-30T23:21:34.564Z,28.37
2023-06-30T23:24:11.439Z,28.37
2023-06-30T23:27:16.750Z,28.65
2023-06-30T23:30:16.761Z,28.57
2023-06-30T23:32:58.983Z,28.48
2023-06-30T23:35:28.230Z,28.15
2023-06-30T23:37:58.200Z,28.49
2023-06-30T23:40:30.234Z,28.43
2023-06-30T23:42:59.591Z,28.56
2023-06-30T23:45:32.297Z,28.51
2023-06-30T23:48:01.451Z,28.60
2023-06-30T23:50:30.579Z,28.23
2023-06-30T23:53:03.448Z,28.45
2023-06-30T23:55:33.068Z,28.63
2023-06-30T23:58:05.263Z,28.41
